Time;durP1;ratioP1;P1;durP2;ratioP2;P2;SDS_P1;SDS_P2;PMS_P1;PMS_P2;Temp;Humidity;BMP_temperature;BMP_pressure;BME280_temperature;BME280_humidity;BME280_pressure;Samples;Min_cycle;Max_cycle;Signal;HPM_P1;HPM_P2
2024/01/06 00:02:09;;;;;;;7.97;4.60;;;7.90;99.90;;;;;;5094261;28;20310;-87
2024/01/06 00:04:35;;;;;;;8.50;4.47;;;7.90;99.90;;;;;;5100670;28;20202;-87
2024/01/06 00:07:01;;;;;;;9.87;4.70;;;7.80;99.90;;;;;;5102998;28;20179;-90
2024/01/06 00:09:26;;;;;;;7.60;4.57;;;7.90;99.90;;;;;;5101097;28;20181;-89
2024/01/06 00:11:53;;;;;;;8.77;4.70;;;7.90;99.90;;;;;;5102004;28;20167;-85
2024/01/06 00:14:18;;;;;;;7.73;4.47;;;7.80;99.90;;;;;;5103425;28;20244;-86
2024/01/06 00:16:44;;;;;;;8.73;4.27;;;7.80;99.90;;;;;;5102508;28;20628;-89
2024/01/06 00:19:10;;;;;;;6.67;3.90;;;7.80;99.90;;;;;;5101647;28;20514;-89
2024/01/06 00:21:36;;;;;;;7.83;4.23;;;7.80;99.90;;;;;;5101420;28;20336;-87
2024/01/06 00:24:01;;;;;;;6.90;4.47;;;7.80;99.90;;;;;;5101293;28;20214;-87
2024/01/06 00:26:27;;;;;;;9.90;4.43;;;7.80;99.90;;;;;;5101249;28;20692;-88
2024/01/06 00:28:53;;;;;;;8.93;4.33;;;7.80;99.90;;;;;;5100407;28;20178;-89
2024/01/06 00:31:19;;;;;;;10.10;4.43;;;7.80;99.90;;;;;;5100351;28;20262;-88
2024/01/06 00:33:45;;;;;;;7.73;4.30;;;7.90;99.90;;;;;;5099251;28;20210;-86
2024/01/06 00:36:11;;;;;;;5.77;4.00;;;7.90;99.90;;;;;;5100679;28;20199;-88
2024/01/06 00:38:36;;;;;;;5.27;3.83;;;7.90;99.90;;;;;;5100068;28;20180;-87
2024/01/06 00:41:03;;;;;;;8.50;4.50;;;7.80;99.90;;;;;;5100249;28;20639;-89
2024/01/06 00:43:30;;;;;;;5.83;4.17;;;7.80;99.90;;;;;;5084158;28;20307;-88
2024/01/06 00:45:55;;;;;;;6.70;4.30;;;7.80;99.90;;;;;;5100522;28;20168;-89
2024/01/06 00:48:21;;;;;;;5.03;4.00;;;7.80;99.90;;;;;;5099457;28;20265;-88
2024/01/06 00:50:47;;;;;;;5.83;3.73;;;7.80;99.90;;;;;;5099009;28;20642;-87
2024/01/06 00:53:13;;;;;;;6.23;3.90;;;7.90;99.90;;;;;;5099542;28;20624;-89
2024/01/06 00:55:39;;;;;;;4.53;3.77;;;7.80;99.90;;;;;;5099099;28;20187;-88
2024/01/06 00:58:05;;;;;;;6.47;3.80;;;7.80;99.90;;;;;;5099095;28;20198;-89
2024/01/06 01:00:30;;;;;;;6.40;4.57;;;7.70;99.90;;;;;;5098929;28;20194;-85
2024/01/06 01:02:56;;;;;;;7.77;3.77;;;7.70;99.90;;;;;;5099087;28;20260;-86
2024/01/06 01:05:22;;;;;;;7.50;4.20;;;7.80;99.90;;;;;;5099042;28;20171;-87
2024/01/06 01:07:48;;;;;;;9.73;4.70;;;7.80;99.90;;;;;;5098992;28;20193;-88
2024/01/06 01:10:13;;;;;;;8.50;4.83;;;7.90;99.90;;;;;;5098768;28;20514;-89
2024/01/06 01:12:40;;;;;;;11.03;5.00;;;7.90;99.90;;;;;;5098898;28;20206;-89
2024/01/06 01:15:06;;;;;;;10.07;5.50;;;7.90;99.90;;;;;;5097794;28;20168;-85
2024/01/06 01:17:32;;;;;;;9.53;4.67;;;8.00;99.90;;;;;;5095798;28;20172;-86
2024/01/06 01:19:57;;;;;;;11.17;5.50;;;7.90;99.90;;;;;;5095938;28;20190;-84
2024/01/06 01:22:23;;;;;;;10.30;5.77;;;7.90;99.90;;;;;;5096219;28;20203;-89
2024/01/06 01:24:49;;;;;;;10.13;5.67;;;8.00;99.90;;;;;;5096857;28;20194;-88
2024/01/06 01:27:14;;;;;;;13.03;5.43;;;7.90;99.90;;;;;;5095723;28;20245;-86
2024/01/06 01:29:40;;;;;;;9.03;6.27;;;7.80;99.90;;;;;;5095448;28;20163;-88
2024/01/06 01:32:06;;;;;;;10.60;5.20;;;7.80;99.90;;;;;;5095499;28;20186;-87
2024/01/06 01:34:31;;;;;;;10.10;4.77;;;7.80;99.90;;;;;;5095439;28;20313;-88
2024/01/06 01:36:57;;;;;;;9.23;4.60;;;7.70;99.90;;;;;;5095223;28;20647;-90
2024/01/06 01:39:23;;;;;;;6.87;4.70;;;7.60;99.90;;;;;;5095207;28;20178;-89
2024/01/06 01:41:48;;;;;;;9.70;4.43;;;7.70;99.90;;;;;;5095036;28;20203;-85
2024/01/06 01:44:15;;;;;;;10.20;4.87;;;7.60;99.90;;;;;;5095441;28;20180;-87
2024/01/06 01:46:41;;;;;;;8.27;4.47;;;7.70;99.90;;;;;;5095292;28;20620;-88
2024/01/06 01:49:07;;;;;;;6.83;3.93;;;7.80;99.90;;;;;;5095243;28;20182;-89
2024/01/06 01:51:34;;;;;;;6.03;3.57;;;7.60;99.90;;;;;;5095423;28;20658;-85
2024/01/06 01:54:05;;;;;;;4.30;3.13;;;7.70;99.90;;;;;;5095054;28;20180;-88
2024/01/06 01:56:34;;;;;;;4.07;3.23;;;7.70;99.90;;;;;;5094771;28;20239;-87
2024/01/06 01:59:11;;;;;;;6.23;3.50;;;7.70;99.90;;;;;;5095282;28;20219;-87
2024/01/06 02:01:37;;;;;;;7.80;3.47;;;7.70;99.90;;;;;;5095206;28;20199;-87
2024/01/06 02:04:03;;;;;;;5.50;3.40;;;7.80;99.90;;;;;;5095164;28;20656;-88
2024/01/06 02:06:29;;;;;;;6.10;3.00;;;7.80;99.90;;;;;;5094731;28;20246;-88
2024/01/06 02:08:55;;;;;;;6.93;3.33;;;7.80;99.90;;;;;;5094959;28;20180;-89
2024/01/06 02:11:20;;;;;;;4.90;2.50;;;7.80;99.90;;;;;;5094422;28;20175;-86
2024/01/06 02:13:46;;;;;;;6.60;3.40;;;7.80;99.90;;;;;;5094808;28;20640;-90
2024/01/06 02:16:12;;;;;;;6.73;3.50;;;7.80;99.90;;;;;;5094424;28;20169;-88
2024/01/06 02:18:37;;;;;;;5.13;3.10;;;7.80;99.90;;;;;;5094512;28;20559;-85
2024/01/06 02:21:03;;;;;;;8.70;3.20;;;7.80;99.90;;;;;;5094548;28;20167;-86
2024/01/06 02:23:29;;;;;;;9.53;3.37;;;7.90;99.90;;;;;;5094512;28;20662;-87
2024/01/06 02:25:56;;;;;;;6.23;3.30;;;8.00;99.90;;;;;;5093852;28;20195;-85
2024/01/06 02:28:22;;;;;;;4.40;3.10;;;8.00;99.90;;;;;;5093221;28;20233;-89
2024/01/06 02:30:48;;;;;;;5.67;2.90;;;8.00;99.90;;;;;;5094273;28;20245;-87
2024/01/06 02:33:14;;;;;;;5.13;2.87;;;8.10;99.90;;;;;;5094423;28;20172;-86
2024/01/06 02:35:40;;;;;;;5.87;2.90;;;8.00;99.90;;;;;;5094530;28;20643;-88
2024/01/06 02:38:06;;;;;;;5.27;3.17;;;8.00;99.90;;;;;;5094239;28;20179;-86
2024/01/06 02:40:32;;;;;;;5.87;3.13;;;8.00;99.90;;;;;;5093823;28;20170;-88
2024/01/06 02:42:58;;;;;;;5.27;2.93;;;8.00;99.90;;;;;;5093759;28;20294;-86
2024/01/06 02:45:24;;;;;;;4.20;3.20;;;8.10;99.90;;;;;;5094140;28;20182;-87
2024/01/06 02:47:50;;;;;;;5.77;2.87;;;8.10;99.90;;;;;;5093665;28;20171;-87
2024/01/06 02:50:16;;;;;;;4.57;3.13;;;8.10;99.90;;;;;;5094656;28;20203;-85
2024/01/06 02:52:42;;;;;;;4.43;2.80;;;8.10;99.90;;;;;;5094653;28;20210;-89
2024/01/06 02:55:08;;;;;;;4.80;3.07;;;8.20;99.90;;;;;;5093931;28;20167;-86
2024/01/06 02:57:33;;;;;;;5.37;3.13;;;8.20;99.90;;;;;;5093954;28;20194;-88
2024/01/06 02:59:59;;;;;;;4.40;3.27;;;8.20;99.90;;;;;;5093763;28;20207;-86
2024/01/06 03:02:25;;;;;;;5.17;3.30;;;8.20;99.90;;;;;;5093892;28;20211;-88
2024/01/06 03:04:50;;;;;;;3.93;3.10;;;8.20;99.90;;;;;;5093785;28;20627;-86
2024/01/06 03:07:16;;;;;;;6.40;3.60;;;8.20;99.90;;;;;;5093879;28;20184;-87
2024/01/06 03:09:42;;;;;;;4.47;3.23;;;8.20;99.90;;;;;;5094593;28;20171;-85
2024/01/06 03:12:07;;;;;;;4.77;3.33;;;8.30;99.90;;;;;;5097512;28;20536;-86
2024/01/06 03:14:37;;;;;;;5.63;3.50;;;8.30;99.90;;;;;;5095519;28;20650;-86
2024/01/06 03:17:03;;;;;;;6.10;3.50;;;8.20;99.90;;;;;;5093422;28;20179;-88
2024/01/06 03:19:29;;;;;;;5.63;4.10;;;8.20;99.90;;;;;;5093495;28;20541;-87
2024/01/06 03:21:55;;;;;;;6.10;4.27;;;8.20;99.90;;;;;;5093447;28;20196;-88
2024/01/06 03:24:25;;;;;;;6.17;4.47;;;8.30;99.90;;;;;;5094118;28;20194;-86
2024/01/06 03:26:51;;;;;;;5.80;4.83;;;8.30;99.90;;;;;;5094936;28;20662;-87
2024/01/06 03:29:16;;;;;;;6.30;4.57;;;8.30;99.90;;;;;;5102195;28;20175;-86
2024/01/06 03:31:43;;;;;;;7.70;4.73;;;8.30;99.90;;;;;;5102920;28;20198;-86
2024/01/06 03:34:11;;;;;;;5.63;4.40;;;8.30;99.90;;;;;;5094006;28;20259;-86
2024/01/06 03:36:37;;;;;;;6.43;5.07;;;8.30;99.90;;;;;;5092841;28;20183;-85
2024/01/06 03:39:03;;;;;;;6.30;5.23;;;8.30;99.90;;;;;;5092266;28;20164;-86
2024/01/06 03:41:28;;;;;;;7.73;5.47;;;8.20;99.90;;;;;;5094042;28;20167;-88
2024/01/06 03:43:54;;;;;;;7.10;5.80;;;8.20;99.90;;;;;;5092886;28;20663;-86
2024/01/06 03:46:19;;;;;;;7.37;6.10;;;8.30;99.90;;;;;;5092977;28;20174;-87
2024/01/06 03:48:45;;;;;;;7.63;6.63;;;8.40;99.90;;;;;;5093182;28;20182;-87
2024/01/06 03:51:12;;;;;;;8.23;6.57;;;8.20;99.90;;;;;;5093011;28;20220;-88
2024/01/06 03:53:40;;;;;;;8.63;6.80;;;7.90;99.90;;;;;;5092752;28;20713;-87
2024/01/06 03:56:06;;;;;;;10.70;7.27;;;8.00;99.90;;;;;;5092935;28;20244;-85
2024/01/06 03:58:31;;;;;;;8.57;7.37;;;8.00;99.90;;;;;;5093751;28;20171;-87
2024/01/06 04:00:57;;;;;;;15.13;7.60;;;7.90;99.90;;;;;;5092695;28;20206;-85
2024/01/06 04:03:23;;;;;;;9.57;7.70;;;7.90;99.90;;;;;;5092751;28;20211;-88
2024/01/06 04:05:48;;;;;;;9.67;7.73;;;7.90;99.90;;;;;;5092911;28;20171;-87
2024/01/06 04:08:14;;;;;;;12.07;8.03;;;8.00;99.90;;;;;;5092372;28;20726;-87
2024/01/06 04:10:41;;;;;;;10.23;7.27;;;8.00;99.90;;;;;;5092849;28;20171;-86
2024/01/06 04:13:07;;;;;;;10.23;7.60;;;8.00;99.90;;;;;;5092445;28;20172;-86
2024/01/06 04:15:33;;;;;;;9.03;7.37;;;8.00;99.90;;;;;;5092593;28;20171;-87
2024/01/06 04:18:03;;;;;;;9.27;6.93;;;8.00;99.90;;;;;;5092533;28;20172;-87
2024/01/06 04:20:29;;;;;;;10.37;7.60;;;7.90;99.90;;;;;;5092384;28;20172;-85
2024/01/06 04:22:56;;;;;;;11.03;7.47;;;7.90;99.90;;;;;;5092109;28;20236;-88
2024/01/06 04:25:21;;;;;;;11.90;8.50;;;8.00;99.90;;;;;;5092613;28;20279;-86
2024/01/06 04:27:48;;;;;;;11.90;8.17;;;7.90;99.90;;;;;;5092676;28;20704;-85
2024/01/06 04:30:15;;;;;;;12.33;8.57;;;7.90;99.90;;;;;;5092391;28;20171;-86
2024/01/06 04:32:41;;;;;;;11.20;8.27;;;8.00;99.90;;;;;;5092458;28;20168;-86
2024/01/06 04:35:08;;;;;;;10.67;8.10;;;8.00;99.90;;;;;;5092428;28;20172;-86
2024/01/06 04:37:33;;;;;;;10.60;7.63;;;8.00;99.90;;;;;;5092234;28;20532;-86
2024/01/06 04:39:59;;;;;;;11.70;7.70;;;7.90;99.90;;;;;;5092332;28;20171;-87
2024/01/06 04:42:25;;;;;;;11.77;7.63;;;7.90;99.90;;;;;;5093180;28;20643;-85
2024/01/06 04:44:50;;;;;;;9.67;7.33;;;7.90;99.90;;;;;;5093710;28;20245;-88
2024/01/06 04:47:17;;;;;;;13.97;8.57;;;7.80;99.90;;;;;;5093101;28;20587;-85
2024/01/06 04:49:43;;;;;;;10.27;7.90;;;7.90;99.90;;;;;;5092074;28;20168;-83
2024/01/06 04:52:09;;;;;;;12.33;7.67;;;7.80;99.90;;;;;;5094962;28;20195;-85
2024/01/06 04:54:34;;;;;;;10.80;7.07;;;7.80;99.90;;;;;;5095971;28;20218;-85
2024/01/06 04:57:00;;;;;;;10.57;7.60;;;7.70;99.90;;;;;;5095958;28;20666;-85
2024/01/06 04:59:25;;;;;;;12.73;7.93;;;7.80;99.90;;;;;;5095979;28;20719;-85
2024/01/06 05:01:52;;;;;;;12.57;8.33;;;7.80;99.90;;;;;;5096088;28;20227;-84
2024/01/06 05:04:19;;;;;;;14.77;8.40;;;7.80;99.90;;;;;;5095891;28;20175;-85
2024/01/06 05:06:44;;;;;;;13.63;7.93;;;7.70;99.90;;;;;;5095391;28;20263;-89
2024/01/06 05:09:10;;;;;;;12.50;7.87;;;7.80;99.90;;;;;;5095381;28;20666;-87
2024/01/06 05:11:36;;;;;;;12.87;7.87;;;7.80;99.90;;;;;;5095597;28;20167;-87
2024/01/06 05:14:01;;;;;;;11.97;9.07;;;7.90;99.90;;;;;;5095446;28;20685;-85
2024/01/06 05:16:27;;;;;;;14.63;9.97;;;8.00;99.90;;;;;;5095734;28;20171;-87
2024/01/06 05:18:53;;;;;;;12.80;8.67;;;8.10;99.90;;;;;;5096145;28;20258;-86
2024/01/06 05:21:19;;;;;;;12.67;7.87;;;8.10;99.90;;;;;;5095555;28;20590;-87
2024/01/06 05:23:45;;;;;;;12.53;8.20;;;8.00;99.90;;;;;;5095870;28;20236;-88
2024/01/06 05:26:12;;;;;;;11.83;7.17;;;8.20;99.90;;;;;;5095317;28;20187;-87
2024/01/06 05:28:37;;;;;;;12.57;7.83;;;8.30;99.90;;;;;;5095655;28;20171;-86
2024/01/06 05:31:03;;;;;;;14.63;7.40;;;8.20;99.90;;;;;;5095088;28;20313;-85
2024/01/06 05:33:29;;;;;;;10.50;7.23;;;8.00;99.90;;;;;;5095224;28;20660;-88
2024/01/06 05:35:54;;;;;;;11.83;7.13;;;7.90;99.90;;;;;;5095251;28;20742;-85
2024/01/06 05:38:21;;;;;;;14.33;8.00;;;7.80;99.90;;;;;;5095602;28;20615;-84
2024/01/06 05:40:47;;;;;;;10.23;6.93;;;7.90;99.90;;;;;;5095271;28;20182;-88
2024/01/06 05:43:12;;;;;;;10.60;6.50;;;7.90;99.90;;;;;;5095139;28;20318;-85
2024/01/06 05:45:41;;;;;;;10.77;7.77;;;7.80;99.90;;;;;;5095363;28;20187;-86
2024/01/06 05:48:10;;;;;;;9.53;6.90;;;7.80;99.90;;;;;;5096111;28;20211;-85
2024/01/06 05:50:36;;;;;;;10.37;6.60;;;7.60;99.90;;;;;;5095697;28;20168;-86
2024/01/06 05:53:01;;;;;;;9.53;7.00;;;7.50;99.90;;;;;;5096835;28;20174;-87
2024/01/06 05:55:27;;;;;;;9.80;6.20;;;7.50;99.90;;;;;;5095764;28;20232;-86
2024/01/06 05:57:53;;;;;;;11.77;7.50;;;7.60;99.90;;;;;;5094679;28;20549;-86
2024/01/06 06:00:19;;;;;;;10.47;6.60;;;7.50;99.90;;;;;;5094696;28;20175;-86
2024/01/06 06:02:45;;;;;;;9.57;7.37;;;7.40;99.90;;;;;;5094422;28;20208;-85
2024/01/06 06:05:10;;;;;;;10.07;7.57;;;7.50;99.90;;;;;;5094711;28;20178;-85
2024/01/06 06:07:39;;;;;;;10.87;6.77;;;7.50;99.90;;;;;;5094235;28;20658;-85
2024/01/06 06:10:10;;;;;;;9.07;6.70;;;7.50;99.90;;;;;;5094752;28;20171;-85
2024/01/06 06:12:36;;;;;;;10.47;6.90;;;7.50;99.90;;;;;;5095002;28;20198;-86
2024/01/06 06:15:03;;;;;;;11.80;7.10;;;7.60;99.90;;;;;;5094542;28;20211;-88
2024/01/06 06:17:30;;;;;;;11.27;6.70;;;7.60;99.90;;;;;;5094281;28;20176;-87
2024/01/06 06:19:57;;;;;;;10.50;6.10;;;7.60;99.90;;;;;;5094578;28;20170;-86
2024/01/06 06:22:23;;;;;;;7.50;5.90;;;7.50;99.90;;;;;;5093944;28;20204;-87
2024/01/06 06:24:49;;;;;;;8.37;5.87;;;7.40;99.90;;;;;;5094525;28;20201;-86
2024/01/06 06:27:14;;;;;;;7.30;5.50;;;7.30;99.90;;;;;;5094095;28;20270;-86
2024/01/06 06:29:40;;;;;;;6.40;4.83;;;7.40;99.90;;;;;;5094398;28;20254;-86
2024/01/06 06:32:06;;;;;;;8.73;5.67;;;7.40;99.90;;;;;;5093908;28;20715;-88
2024/01/06 06:34:31;;;;;;;8.17;6.30;;;7.40;99.90;;;;;;5094613;28;20199;-87
2024/01/06 06:36:58;;;;;;;8.37;6.43;;;7.40;99.90;;;;;;5094095;28;20188;-88
2024/01/06 06:39:24;;;;;;;10.73;6.13;;;7.40;99.90;;;;;;5094566;28;20176;-88
2024/01/06 06:41:49;;;;;;;7.20;5.43;;;7.50;99.90;;;;;;5093719;28;20251;-86
2024/01/06 06:44:15;;;;;;;9.47;6.20;;;7.30;99.90;;;;;;5094088;28;20624;-88
2024/01/06 06:46:41;;;;;;;9.60;6.10;;;7.20;99.90;;;;;;5093702;28;20511;-85
2024/01/06 06:49:07;;;;;;;10.00;6.83;;;7.30;99.90;;;;;;5093820;28;20662;-87
2024/01/06 06:51:32;;;;;;;10.20;6.03;;;7.20;99.90;;;;;;5094063;28;20175;-88
2024/01/06 06:53:58;;;;;;;9.70;6.37;;;7.20;99.90;;;;;;5093858;28;20631;-85
2024/01/06 06:56:24;;;;;;;9.53;6.87;;;7.00;99.90;;;;;;5093644;28;20191;-86
2024/01/06 06:58:49;;;;;;;9.60;6.60;;;7.00;99.90;;;;;;5093560;28;20187;-87
2024/01/06 07:01:15;;;;;;;11.17;6.90;;;7.00;99.90;;;;;;5093966;28;20654;-87
2024/01/06 07:03:42;;;;;;;9.77;6.27;;;6.90;99.90;;;;;;5114969;28;20207;-85
2024/01/06 07:06:11;;;;;;;10.60;6.13;;;6.90;99.90;;;;;;5110260;28;20199;-86
2024/01/06 07:08:38;;;;;;;8.43;7.10;;;6.80;99.90;;;;;;5093798;28;20186;-84
2024/01/06 07:11:04;;;;;;;9.67;7.43;;;6.80;99.90;;;;;;5093389;28;20532;-86
2024/01/06 07:13:30;;;;;;;9.13;6.30;;;6.80;99.90;;;;;;5093110;28;20242;-86
2024/01/06 07:15:55;;;;;;;10.70;7.87;;;6.80;99.90;;;;;;5093511;28;20645;-86
2024/01/06 07:18:23;;;;;;;10.43;8.00;;;6.70;99.90;;;;;;5093193;28;20530;-86
2024/01/06 07:20:49;;;;;;;9.53;8.50;;;6.70;99.90;;;;;;5093128;28;20186;-87
2024/01/06 07:23:14;;;;;;;12.70;7.60;;;6.70;99.90;;;;;;5093002;28;20268;-87
2024/01/06 07:25:40;;;;;;;11.53;8.87;;;6.70;99.90;;;;;;5093244;28;20199;-87
2024/01/06 07:28:08;;;;;;;13.67;9.10;;;6.70;99.90;;;;;;5093074;28;20176;-85
2024/01/06 07:30:34;;;;;;;10.30;8.30;;;6.70;99.90;;;;;;5093258;28;20255;-86
2024/01/06 07:33:00;;;;;;;13.60;9.60;;;6.50;99.90;;;;;;5094065;28;20251;-87
2024/01/06 07:35:25;;;;;;;13.83;8.40;;;6.50;99.90;;;;;;5093301;28;20167;-85
2024/01/06 07:37:51;;;;;;;10.93;8.20;;;6.50;99.90;;;;;;5093137;28;20175;-85
2024/01/06 07:40:18;;;;;;;13.17;9.27;;;6.50;99.90;;;;;;5094524;28;20687;-86
2024/01/06 07:42:44;;;;;;;12.20;10.23;;;6.40;99.90;;;;;;5093065;28;20211;-88
2024/01/06 07:45:10;;;;;;;14.43;10.30;;;6.50;99.90;;;;;;5093240;28;20171;-87
2024/01/06 07:47:36;;;;;;;11.77;9.27;;;6.50;99.90;;;;;;5092834;28;20655;-86
2024/01/06 07:50:02;;;;;;;13.47;10.40;;;6.50;99.90;;;;;;5093138;28;20182;-85
2024/01/06 07:52:27;;;;;;;13.30;8.83;;;6.50;99.90;;;;;;5093063;28;20160;-88
2024/01/06 07:54:53;;;;;;;14.23;10.57;;;6.50;99.90;;;;;;5092745;28;20216;-85
2024/01/06 07:57:19;;;;;;;16.73;10.50;;;6.40;99.90;;;;;;5092519;28;20184;-87
2024/01/06 07:59:46;;;;;;;16.00;11.13;;;6.40;99.90;;;;;;5092477;28;20174;-86
2024/01/06 08:02:11;;;;;;;15.47;10.17;;;6.40;99.90;;;;;;5092539;28;20231;-88
2024/01/06 08:04:37;;;;;;;17.23;12.30;;;6.50;99.90;;;;;;5092957;28;20178;-87
2024/01/06 08:07:03;;;;;;;15.20;12.07;;;6.50;99.90;;;;;;5092455;28;20635;-87
2024/01/06 08:09:28;;;;;;;14.53;11.33;;;6.60;99.90;;;;;;5092265;28;20630;-86
2024/01/06 08:11:55;;;;;;;13.27;10.73;;;6.50;99.90;;;;;;5091928;28;20506;-86
2024/01/06 08:14:21;;;;;;;16.17;10.37;;;6.60;99.90;;;;;;5092018;28;20654;-86
2024/01/06 08:16:46;;;;;;;14.43;11.23;;;6.50;99.90;;;;;;5092172;28;20202;-85
2024/01/06 08:19:13;;;;;;;13.77;10.50;;;6.60;99.90;;;;;;5092577;28;20694;-87
2024/01/06 08:21:39;;;;;;;14.40;10.47;;;6.60;99.90;;;;;;5092561;28;20175;-87
2024/01/06 08:24:04;;;;;;;14.97;10.60;;;6.50;99.90;;;;;;5092397;28;20186;-88
2024/01/06 08:26:30;;;;;;;13.37;10.00;;;6.60;99.90;;;;;;5096240;28;20513;-85
2024/01/06 08:28:56;;;;;;;12.63;9.83;;;6.60;99.90;;;;;;5095804;28;20623;-85
2024/01/06 08:31:22;;;;;;;14.80;10.73;;;6.50;99.90;;;;;;5096388;28;20201;-84
2024/01/06 08:33:48;;;;;;;14.97;10.10;;;6.60;99.90;;;;;;5097065;28;20175;-87
2024/01/06 08:36:14;;;;;;;16.73;9.10;;;6.60;99.90;;;;;;5096379;28;20194;-87
2024/01/06 08:38:40;;;;;;;14.00;9.83;;;6.40;99.90;;;;;;5096739;28;20662;-85
2024/01/06 08:41:05;;;;;;;12.07;7.40;;;6.30;99.90;;;;;;5109213;28;20187;-87
2024/01/06 08:43:31;;;;;;;10.93;7.30;;;6.30;99.90;;;;;;5117497;28;20212;-87
2024/01/06 08:45:58;;;;;;;9.30;7.30;;;6.20;99.90;;;;;;5100964;28;20201;-87
2024/01/06 08:48:26;;;;;;;10.70;7.07;;;6.30;99.90;;;;;;5096220;28;20171;-86
2024/01/06 08:50:52;;;;;;;10.00;6.50;;;6.20;99.90;;;;;;5095867;28;20168;-86
2024/01/06 08:53:18;;;;;;;7.57;5.67;;;6.10;99.90;;;;;;5096102;28;20186;-86
2024/01/06 08:55:43;;;;;;;9.47;7.57;;;6.00;99.90;;;;;;5095419;28;20662;-86
2024/01/06 08:58:09;;;;;;;8.53;6.30;;;6.10;99.90;;;;;;5095703;28;20543;-85
2024/01/06 09:00:35;;;;;;;10.17;6.47;;;6.10;99.90;;;;;;5095879;28;20220;-85
2024/01/06 09:03:00;;;;;;;11.67;6.60;;;6.10;99.90;;;;;;5096210;28;20736;-86
2024/01/06 09:05:26;;;;;;;10.13;6.93;;;6.10;99.90;;;;;;5109147;28;20235;-86
2024/01/06 09:07:52;;;;;;;8.60;6.50;;;6.10;99.90;;;;;;5120155;28;20196;-87
2024/01/06 09:10:18;;;;;;;9.93;6.80;;;6.10;99.90;;;;;;5120468;28;20168;-85
2024/01/06 09:12:46;;;;;;;12.17;7.50;;;6.00;99.90;;;;;;5111063;28;20183;-85
2024/01/06 09:15:14;;;;;;;12.77;7.73;;;6.10;99.90;;;;;;5106364;28;20175;-84
2024/01/06 09:18:02;;;;;;;10.60;7.30;;;6.10;99.90;;;;;;5107930;28;20175;-85
2024/01/06 09:20:28;;;;;;;8.83;6.90;;;6.00;99.90;;;;;;5110917;28;20168;-87
2024/01/06 09:22:54;;;;;;;10.63;7.57;;;6.10;99.90;;;;;;5108777;28;20233;-85
2024/01/06 09:25:23;;;;;;;11.97;8.37;;;6.10;99.90;;;;;;5098266;28;20188;-87
2024/01/06 09:27:48;;;;;;;12.37;9.07;;;6.20;99.90;;;;;;5095671;28;20179;-86
2024/01/06 09:30:14;;;;;;;13.93;8.23;;;6.20;99.90;;;;;;5095522;28;20183;-88
2024/01/06 09:32:40;;;;;;;10.33;7.87;;;6.20;99.90;;;;;;5094998;28;20240;-87
2024/01/06 09:35:06;;;;;;;9.23;6.87;;;6.20;99.90;;;;;;5095386;28;20177;-85
2024/01/06 09:37:32;;;;;;;7.77;6.27;;;6.20;99.90;;;;;;5094450;28;20195;-87
2024/01/06 09:39:57;;;;;;;9.00;5.93;;;6.20;99.90;;;;;;5095841;28;20171;-87
2024/01/06 09:42:23;;;;;;;16.50;8.33;;;6.20;99.90;;;;;;5094788;28;20674;-86
2024/01/06 09:44:49;;;;;;;10.07;6.37;;;6.10;99.90;;;;;;5095161;28;20505;-84
2024/01/06 09:47:18;;;;;;;14.50;7.20;;;6.20;99.90;;;;;;5095193;28;20174;-87
2024/01/06 09:49:49;;;;;;;9.47;6.73;;;6.10;99.90;;;;;;5095410;28;20229;-86
2024/01/06 09:52:19;;;;;;;13.57;8.00;;;6.10;99.90;;;;;;5095491;28;20347;-87
2024/01/06 09:54:52;;;;;;;10.03;7.70;;;6.20;99.90;;;;;;5094632;28;20599;-84
2024/01/06 09:57:20;;;;;;;12.33;7.63;;;6.20;99.90;;;;;;5094835;28;20217;-89
2024/01/06 09:59:47;;;;;;;12.07;8.47;;;6.20;99.90;;;;;;5095210;28;20546;-87
2024/01/06 10:02:16;;;;;;;11.23;8.37;;;6.20;99.90;;;;;;5094575;28;20269;-85
2024/01/06 10:04:43;;;;;;;9.60;6.73;;;6.20;99.90;;;;;;5094553;28;20171;-86
2024/01/06 10:07:12;;;;;;;10.00;7.60;;;6.00;99.90;;;;;;5094335;28;20207;-86
2024/01/06 10:09:38;;;;;;;9.50;6.57;;;6.10;99.90;;;;;;5094534;28;20180;-87
2024/01/06 10:12:04;;;;;;;8.73;6.27;;;6.10;99.90;;;;;;5094573;28;20224;-86
2024/01/06 10:14:30;;;;;;;6.13;5.13;;;6.10;99.90;;;;;;5094863;28;20580;-87
2024/01/06 10:16:56;;;;;;;8.50;5.33;;;6.00;99.90;;;;;;5094950;28;20655;-89
2024/01/06 10:19:23;;;;;;;8.70;5.60;;;5.90;99.90;;;;;;5096055;28;20308;-87
2024/01/06 10:21:49;;;;;;;10.43;6.00;;;6.00;99.90;;;;;;5097152;28;20303;-85
2024/01/06 10:24:20;;;;;;;7.27;5.53;;;5.90;99.90;;;;;;5094285;28;20202;-87
2024/01/06 10:26:46;;;;;;;8.47;5.93;;;5.90;99.90;;;;;;5108649;28;20172;-87
2024/01/06 10:29:13;;;;;;;9.27;6.60;;;6.00;99.90;;;;;;5113171;28;20198;-88
2024/01/06 10:31:39;;;;;;;9.07;6.70;;;5.80;99.90;;;;;;5103347;28;20694;-87
2024/01/06 10:34:06;;;;;;;8.33;6.40;;;5.90;99.90;;;;;;5095054;28;20180;-87
2024/01/06 10:36:32;;;;;;;8.47;7.07;;;5.80;99.90;;;;;;5093969;28;20171;-85
2024/01/06 10:38:58;;;;;;;9.30;7.10;;;5.90;99.90;;;;;;5094179;28;20167;-88
2024/01/06 10:41:25;;;;;;;9.60;6.30;;;5.90;99.90;;;;;;5093865;28;20216;-87
2024/01/06 10:43:51;;;;;;;9.13;6.87;;;5.80;99.90;;;;;;5093908;28;20672;-87
2024/01/06 10:46:19;;;;;;;10.10;7.70;;;5.80;99.90;;;;;;5094059;28;20172;-88
2024/01/06 10:48:46;;;;;;;12.37;8.90;;;5.90;99.90;;;;;;5092530;28;20180;-86
2024/01/06 10:51:13;;;;;;;10.77;8.20;;;5.90;99.90;;;;;;5095704;28;20175;-85
2024/01/06 10:53:42;;;;;;;9.20;7.13;;;6.00;99.90;;;;;;5093826;28;20257;-86
2024/01/06 10:56:10;;;;;;;11.57;7.50;;;6.00;99.90;;;;;;5094226;28;20264;-86
2024/01/06 10:58:42;;;;;;;10.83;8.37;;;6.00;99.90;;;;;;5093637;28;20186;-85
2024/01/06 11:01:09;;;;;;;14.13;8.47;;;6.00;99.90;;;;;;5094397;28;20228;-90
2024/01/06 11:03:37;;;;;;;11.17;7.43;;;6.10;99.90;;;;;;5094668;28;20218;-86
2024/01/06 11:06:04;;;;;;;13.47;7.83;;;6.00;99.90;;;;;;5093857;28;20176;-86
2024/01/06 11:08:32;;;;;;;10.87;8.07;;;6.00;99.90;;;;;;5094123;28;20184;-87
2024/01/06 11:10:58;;;;;;;10.50;7.83;;;5.90;99.90;;;;;;5095923;28;20248;-88
2024/01/06 11:13:24;;;;;;;9.63;6.80;;;5.80;99.90;;;;;;5093488;28;20175;-89
2024/01/06 11:15:54;;;;;;;12.57;6.90;;;5.80;99.90;;;;;;5093897;28;20175;-85
2024/01/06 11:18:33;;;;;;;9.07;7.37;;;5.80;99.90;;;;;;5093210;28;20176;-85
2024/01/06 11:21:14;;;;;;;8.73;6.23;;;5.90;99.90;;;;;;5093430;28;20171;-88
2024/01/06 11:23:43;;;;;;;7.77;6.33;;;5.80;99.90;;;;;;5092869;28;20207;-90
2024/01/06 11:26:10;;;;;;;6.33;5.10;;;5.70;99.90;;;;;;5093086;28;20230;-86
2024/01/06 11:28:45;;;;;;;8.10;5.50;;;5.70;99.90;;;;;;5093489;28;20183;-88
2024/01/06 11:31:10;;;;;;;8.30;6.10;;;5.70;99.90;;;;;;5093618;28;20167;-85
2024/01/06 11:33:44;;;;;;;8.80;7.23;;;5.70;99.90;;;;;;5093019;28;20174;-88
2024/01/06 11:36:10;;;;;;;9.57;7.57;;;5.90;99.90;;;;;;5093249;28;20586;-86
2024/01/06 11:38:39;;;;;;;7.93;6.53;;;5.90;99.90;;;;;;5093452;28;20199;-86
2024/01/06 11:41:11;;;;;;;7.30;5.77;;;5.90;99.90;;;;;;5093350;28;20221;-85
2024/01/06 11:43:41;;;;;;;7.73;5.57;;;5.80;99.90;;;;;;5092724;28;20207;-88
2024/01/06 11:46:08;;;;;;;7.30;6.03;;;5.70;99.90;;;;;;5096194;28;20254;-86
2024/01/06 11:48:34;;;;;;;7.43;6.00;;;5.80;99.90;;;;;;5093560;28;20254;-86
2024/01/06 11:51:00;;;;;;;8.90;6.67;;;5.90;99.90;;;;;;5093361;28;20262;-87
2024/01/06 11:53:27;;;;;;;9.87;6.37;;;5.80;99.90;;;;;;5092884;28;20642;-86
2024/01/06 11:55:53;;;;;;;8.13;5.67;;;5.80;99.90;;;;;;5092969;28;20199;-87
2024/01/06 11:58:19;;;;;;;7.57;5.90;;;5.80;99.90;;;;;;5092580;28;20266;-87
2024/01/06 12:00:55;;;;;;;7.20;6.10;;;5.90;99.90;;;;;;5094648;28;20163;-84
2024/01/06 12:03:21;;;;;;;9.87;6.70;;;5.80;99.90;;;;;;5092818;28;20211;-85
2024/01/06 12:06:02;;;;;;;8.03;6.50;;;5.90;99.90;;;;;;5092736;28;20536;-85
2024/01/06 12:08:29;;;;;;;6.90;5.73;;;5.90;99.90;;;;;;5093690;28;20269;-84
2024/01/06 12:11:05;;;;;;;9.07;6.83;;;5.80;99.90;;;;;;5093235;28;20180;-85
2024/01/06 12:13:31;;;;;;;9.80;6.63;;;5.80;99.90;;;;;;5092589;28;20164;-85
2024/01/06 12:15:57;;;;;;;9.00;6.53;;;5.90;99.90;;;;;;5093670;28;20177;-84
2024/01/06 12:18:24;;;;;;;7.43;5.90;;;5.80;99.90;;;;;;5092971;28;20604;-86
2024/01/06 12:20:51;;;;;;;7.10;4.53;;;5.70;99.90;;;;;;5092705;28;20524;-85
2024/01/06 12:23:27;;;;;;;8.90;5.97;;;5.60;99.90;;;;;;5093053;28;20264;-86
2024/01/06 12:25:53;;;;;;;8.63;6.53;;;5.50;99.90;;;;;;5092450;28;20195;-85
2024/01/06 12:28:19;;;;;;;7.00;6.03;;;5.60;99.90;;;;;;5092431;28;20180;-86
2024/01/06 12:30:45;;;;;;;8.93;6.03;;;5.60;99.90;;;;;;5092617;28;20537;-85
2024/01/06 12:33:11;;;;;;;10.67;6.80;;;5.70;99.90;;;;;;5093214;28;20175;-87
2024/01/06 12:35:37;;;;;;;7.60;6.60;;;5.70;99.90;;;;;;5092264;28;20561;-86
2024/01/06 12:38:07;;;;;;;7.97;6.43;;;5.80;99.90;;;;;;5092126;28;20190;-86
2024/01/06 12:40:32;;;;;;;6.17;5.30;;;5.80;99.90;;;;;;5092162;28;20319;-87
2024/01/06 12:42:58;;;;;;;8.07;5.23;;;5.80;99.90;;;;;;5105047;28;20230;-86
2024/01/06 12:45:24;;;;;;;6.63;5.47;;;5.80;99.90;;;;;;5111045;28;20191;-85
2024/01/06 12:47:49;;;;;;;7.73;5.97;;;5.80;99.90;;;;;;5112462;28;20160;-85
2024/01/06 12:50:15;;;;;;;6.83;5.23;;;5.90;99.90;;;;;;5107357;28;20180;-90